createdAt,value
2023-11-13T00:00:36.780Z,100197.38
2023-11-13T00:03:38.795Z,100213.16
2023-11-13T00:06:40.940Z,100224.25
2023-11-13T00:09:42.636Z,100215.09
2023-11-13T00:12:44.805Z,100209.78
2023-11-13T00:15:46.856Z,100212.56
2023-11-13T00:18:48.996Z,100222.56
2023-11-13T00:21:50.732Z,100224.63
2023-11-13T00:24:52.657Z,100232.94
2023-11-13T00:27:54.765Z,100232.38
2023-11-13T00:30:56.809Z,100228.59
2023-11-13T00:33:59.629Z,100229.59
2023-11-13T00:37:01.361Z,100223.50
2023-11-13T00:40:03.511Z,100232.44
2023-11-13T00:43:05.501Z,100227.94
2023-11-13T00:46:08.124Z,100229.63
2023-11-13T00:49:10.119Z,100218.06
2023-11-13T00:52:12.074Z,100217.91
2023-11-13T00:55:15.050Z,100222.56
2023-11-13T00:58:17.026Z,100208.03
2023-11-13T01:01:19.004Z,100205.38
2023-11-13T01:04:21.108Z,100199.87
2023-11-13T01:07:22.764Z,100203.13
2023-11-13T01:10:24.513Z,100202.87
2023-11-13T01:13:27.953Z,100196.66
2023-11-13T01:16:30.721Z,100200.56
2023-11-13T01:19:32.596Z,100192.81
2023-11-13T01:22:34.277Z,100205.63
2023-11-13T01:25:36.240Z,100214.19
2023-11-13T01:28:38.095Z,100207.03
2023-11-13T01:31:39.971Z,100213.22
2023-11-13T01:34:44.681Z,100204.22
2023-11-13T01:37:47.473Z,100213.78
2023-11-13T01:40:49.318Z,100224.97
2023-11-13T01:43:51.185Z,100231.16
2023-11-13T01:46:53.129Z,100235.81
2023-11-13T01:49:54.900Z,100244.28
2023-11-13T01:52:56.839Z,100232.81
2023-11-13T01:56:01.509Z,100245.50
2023-11-13T01:59:03.683Z,100246.53
2023-11-13T02:02:06.081Z,100244.37
2023-11-13T02:05:08.728Z,100261.81
2023-11-13T02:08:10.647Z,100265.94
2023-11-13T02:11:12.815Z,100258.19
2023-11-13T02:14:14.840Z,100250.84
2023-11-13T02:17:17.851Z,100249.00
2023-11-13T02:20:22.736Z,100246.87
2023-11-13T02:23:24.633Z,100250.78
2023-11-13T02:26:26.337Z,100249.09
2023-11-13T02:29:28.191Z,100249.81
2023-11-13T02:32:29.900Z,100251.19
2023-11-13T02:35:31.853Z,100255.44
2023-11-13T02:38:33.989Z,100251.19
2023-11-13T02:41:35.969Z,100253.13
2023-11-13T02:44:37.810Z,100256.78
2023-11-13T02:47:39.557Z,100254.41
2023-11-13T02:50:41.486Z,100249.34
2023-11-13T02:53:43.454Z,100246.69
2023-11-13T02:56:45.111Z,100259.31
2023-11-13T02:59:47.071Z,100254.53
2023-11-13T03:02:49.152Z,100259.97
2023-11-13T03:05:50.964Z,100254.06
2023-11-13T03:08:52.927Z,100245.06
2023-11-13T03:11:54.917Z,100234.34
2023-11-13T03:14:56.532Z,100233.41
2023-11-13T03:17:58.336Z,100231.03
2023-11-13T03:20:59.948Z,100233.81
2023-11-13T03:24:01.648Z,100233.37
2023-11-13T03:27:03.578Z,100237.41
2023-11-13T03:30:06.370Z,100235.59
2023-11-13T03:33:08.423Z,100237.41
2023-11-13T03:36:10.162Z,100225.75
2023-11-13T03:39:12.930Z,100226.81
2023-11-13T03:42:14.580Z,100225.03
2023-11-13T03:45:16.233Z,100224.88
2023-11-13T03:48:18.104Z,100219.69
2023-11-13T03:51:20.562Z,100223.19
2023-11-13T03:54:22.311Z,100229.53
2023-11-13T03:57:23.902Z,100231.34
2023-11-13T04:00:25.837Z,100231.22
2023-11-13T04:03:27.859Z,100236.69
2023-11-13T04:06:30.033Z,100246.53
2023-11-13T04:09:31.918Z,100239.94
2023-11-13T04:12:33.574Z,100241.88
2023-11-13T04:15:35.214Z,100244.56
2023-11-13T04:18:36.893Z,100238.25
2023-11-13T04:21:38.861Z,100231.34
2023-11-13T04:24:40.566Z,100245.91
2023-11-13T04:27:42.537Z,100232.19
2023-11-13T04:30:44.143Z,100236.41
2023-11-13T04:33:47.461Z,100225.91
2023-11-13T04:36:49.352Z,100251.97
2023-11-13T04:39:51.345Z,100258.94
2023-11-13T04:42:53.694Z,100259.69
2023-11-13T04:45:55.674Z,100254.41
2023-11-13T04:48:57.728Z,100266.81
2023-11-13T04:52:00.739Z,100272.16
2023-11-13T04:55:02.599Z,100271.03
2023-11-13T04:58:04.613Z,100263.59
2023-11-13T05:01:09.395Z,100258.84
2023-11-13T05:04:13.951Z,100269.97
2023-11-13T05:07:16.674Z,100253.81
2023-11-13T05:10:18.637Z,100232.53
2023-11-13T05:13:20.403Z,100246.34
2023-11-13T05:16:26.801Z,100250.00
2023-11-13T05:19:28.615Z,100262.75
2023-11-13T05:22:30.633Z,100254.44
2023-11-13T05:25:32.634Z,100262.28
2023-11-13T05:28:35.023Z,100266.31
2023-11-13T05:31:37.018Z,100264.47
2023-11-13T05:34:40.086Z,100272.69
2023-11-13T05:37:44.265Z,100272.09
2023-11-13T05:40:46.408Z,100278.22
2023-11-13T05:43:48.343Z,100296.44
2023-11-13T05:46:50.235Z,100279.84
2023-11-13T05:49:52.302Z,100295.53
2023-11-13T05:52:54.532Z,100288.47
2023-11-13T05:55:57.966Z,100295.53
2023-11-13T05:59:00.209Z,100298.88
2023-11-13T06:02:02.109Z,100301.41
2023-11-13T06:05:06.649Z,100299.75
2023-11-13T06:08:08.373Z,100312.56
2023-11-13T06:11:10.393Z,100318.06
2023-11-13T06:14:13.140Z,100318.06
2023-11-13T06:17:14.892Z,100309.88
2023-11-13T06:20:16.714Z,100315.94
2023-11-13T06:23:18.336Z,100328.09
2023-11-13T06:26:20.254Z,100330.09
2023-11-13T06:29:22.215Z,100333.78
2023-11-13T06:32:24.031Z,100336.75
2023-11-13T06:35:26.034Z,100334.66
2023-11-13T06:38:27.671Z,100335.37
2023-11-13T06:41:29.373Z,100328.22
2023-11-13T06:44:31.206Z,100320.06
2023-11-13T06:47:34.166Z,100318.09
2023-11-13T06:50:44.725Z,100325.19
2023-11-13T06:53:49.569Z,100308.84
2023-11-13T06:56:51.669Z,100306.56
2023-11-13T06:59:53.623Z,100326.84
2023-11-13T07:02:56.693Z,100322.59
2023-11-13T07:05:58.803Z,100325.41
2023-11-13T07:09:00.466Z,100330.06
2023-11-13T07:12:02.144Z,100343.72
2023-11-13T07:15:06.144Z,100341.31
2023-11-13T07:18:08.563Z,100340.88
2023-11-13T07:21:10.321Z,100350.47
2023-11-13T07:24:13.735Z,100351.91
2023-11-13T07:27:15.762Z,100358.78
2023-11-13T07:30:31.268Z,100360.72
2023-11-13T07:33:34.570Z,100349.34
2023-11-13T07:36:36.450Z,100333.62
2023-11-13T07:39:38.413Z,100335.75
2023-11-13T07:42:42.204Z,100306.28
2023-11-13T07:45:44.202Z,100323.34
2023-11-13T07:48:46.998Z,100328.69
2023-11-13T07:52:01.522Z,100330.91
2023-11-13T07:55:03.727Z,100333.72
2023-11-13T07:58:05.856Z,100338.94
2023-11-13T08:01:08.587Z,100326.03
2023-11-13T08:04:10.365Z,100332.09
2023-11-13T08:07:17.567Z,100334.09
2023-11-13T08:10:27.454Z,100337.62
2023-11-13T08:13:29.306Z,100333.81
2023-11-13T08:16:31.414Z,100335.19
2023-11-13T08:19:34.529Z,100325.63
2023-11-13T08:22:37.359Z,100317.16
2023-11-13T08:25:39.305Z,100318.13
2023-11-13T08:28:41.527Z,100330.81
2023-11-13T08:31:49.339Z,100336.19
2023-11-13T08:34:51.357Z,100362.97
2023-11-13T08:37:53.412Z,100369.44
2023-11-13T08:40:55.303Z,100363.81
2023-11-13T08:43:57.184Z,100364.09
2023-11-13T08:47:01.032Z,100352.22
2023-11-13T08:50:03.149Z,100345.19
2023-11-13T08:53:05.663Z,100348.13
2023-11-13T08:56:11.542Z,100348.25
2023-11-13T08:59:17.965Z,100366.03
2023-11-13T09:02:19.875Z,100357.28
2023-11-13T09:05:22.562Z,100349.78
2023-11-13T09:08:24.608Z,100351.56
2023-11-13T09:11:34.271Z,100358.59
2023-11-13T09:14:44.361Z,100350.31
2023-11-13T09:17:56.361Z,100354.34
2023-11-13T09:20:58.405Z,100360.50
2023-11-13T09:24:12.294Z,100347.97
2023-11-13T09:27:14.565Z,100349.78
2023-11-13T09:30:19.016Z,100359.34
2023-11-13T09:33:22.878Z,100354.16
2023-11-13T09:36:27.089Z,100338.50
2023-11-13T09:39:29.121Z,100341.91
2023-11-13T09:42:34.774Z,100344.25
2023-11-13T09:45:36.755Z,100334.72
2023-11-13T09:48:51.899Z,100328.75
2023-11-13T09:51:53.878Z,100334.75
2023-11-13T09:55:13.016Z,100347.16
2023-11-13T09:58:16.351Z,100335.22
2023-11-13T10:01:19.025Z,100331.84
2023-11-13T10:04:33.395Z,100333.47
2023-11-13T10:07:35.961Z,100335.81
2023-11-13T10:10:38.093Z,100332.16
2023-11-13T10:13:42.382Z,100338.34
2023-11-13T10:17:01.182Z,100333.69
2023-11-13T10:20:10.204Z,100334.28
2023-11-13T10:23:16.998Z,100331.94
2023-11-13T10:26:26.965Z,100321.47
2023-11-13T10:29:30.145Z,100309.62
2023-11-13T10:36:15.930Z,100320.03
2023-11-13T10:39:36.305Z,100310.75
2023-11-13T10:42:49.517Z,100314.38
2023-11-13T10:45:54.363Z,100322.44
2023-11-13T10:49:02.631Z,100328.87
2023-11-13T10:52:10.035Z,100319.00
2023-11-13T10:55:14.884Z,100318.31
2023-11-13T10:58:17.836Z,100312.34
2023-11-13T11:01:27.535Z,100311.63
2023-11-13T11:04:32.888Z,100306.84
2023-11-13T11:07:35.473Z,100306.09
2023-11-13T11:10:38.369Z,100304.81
2023-11-13T11:13:54.549Z,100303.31
2023-11-13T11:21:05.725Z,100281.09
2023-11-13T11:24:32.167Z,100278.13
2023-11-13T11:28:03.561Z,100272.50
2023-11-13T11:31:36.343Z,100275.38
2023-11-13T11:34:41.338Z,100277.37
2023-11-13T11:38:29.105Z,100290.38
2023-11-13T11:41:40.830Z,100281.88
2023-11-13T11:44:54.874Z,100270.09
2023-11-13T11:48:14.916Z,100271.31
2023-11-13T11:51:25.569Z,100263.09
2023-11-13T11:54:42.023Z,100266.94
2023-11-13T12:01:01.949Z,100253.84
2023-11-13T12:04:11.282Z,100271.66
2023-11-13T12:07:20.924Z,100265.34
2023-11-13T12:10:23.324Z,100256.56
2023-11-13T12:14:13.793Z,100260.59
2023-11-13T12:17:20.520Z,100260.31
2023-11-13T12:20:24.418Z,100253.53
2023-11-13T12:23:27.785Z,100249.78
2023-11-13T12:26:37.005Z,100244.28
2023-11-13T12:29:39.169Z,100233.69
2023-11-13T12:32:41.329Z,100230.22
2023-11-13T12:35:46.175Z,100238.16
2023-11-13T12:38:52.482Z,100215.25
2023-11-13T12:42:04.906Z,100227.69
2023-11-13T12:45:19.816Z,100215.50
2023-11-13T12:48:23.684Z,100224.41
2023-11-13T12:51:35.848Z,100222.31
2023-11-13T12:54:40.375Z,100209.50
2023-11-13T12:57:45.904Z,100221.34
2023-11-13T13:00:48.989Z,100210.28
2023-11-13T13:04:01.095Z,100213.16
2023-11-13T13:07:07.268Z,100215.00
2023-11-13T13:10:10.372Z,100207.72
2023-11-13T13:13:12.264Z,100218.31
2023-11-13T13:16:14.272Z,100210.88
2023-11-13T13:19:16.388Z,100200.38
2023-11-13T13:22:18.488Z,100200.13
2023-11-13T13:25:26.491Z,100191.69
2023-11-13T13:28:30.206Z,100203.19
2023-11-13T13:31:34.947Z,100194.28
2023-11-13T13:34:37.291Z,100211.91
2023-11-13T13:37:40.527Z,100218.81
2023-11-13T13:40:57.645Z,100234.06
2023-11-13T13:44:17.614Z,100225.12
2023-11-13T13:47:20.737Z,100226.66
2023-11-13T13:50:36.415Z,100238.06
2023-11-13T13:53:40.977Z,100245.91
2023-11-13T13:56:42.814Z,100249.25
2023-11-13T13:59:45.926Z,100254.03
2023-11-13T14:03:02.506Z,100235.59
2023-11-13T14:06:05.510Z,100253.81
2023-11-13T14:09:10.086Z,100246.47
2023-11-13T14:12:18.781Z,100241.59
2023-11-13T14:15:29.160Z,100248.50
2023-11-13T14:18:32.152Z,100232.84
2023-11-13T14:21:34.064Z,100247.28
2023-11-13T14:24:36.030Z,100243.09
2023-11-13T14:27:38.155Z,100245.47
2023-11-13T14:30:40.101Z,100232.66
2023-11-13T14:33:42.796Z,100223.22
2023-11-13T14:36:49.041Z,100212.28
2023-11-13T14:39:54.657Z,100216.97
2023-11-13T14:42:58.359Z,100251.00
2023-11-13T14:46:00.239Z,100248.53
2023-11-13T14:49:05.936Z,100254.31
2023-11-13T14:52:08.208Z,100236.34
2023-11-13T14:55:11.373Z,100244.03
2023-11-13T14:58:15.571Z,100237.56
2023-11-13T15:01:19.048Z,100226.09
2023-11-13T15:04:24.110Z,100226.69
2023-11-13T15:07:26.225Z,100231.38
2023-11-13T15:10:43.921Z,100238.75
2023-11-13T15:13:45.944Z,100233.69
2023-11-13T15:17:03.713Z,100232.31
2023-11-13T15:20:06.592Z,100231.31
2023-11-13T15:23:20.229Z,100223.19
2023-11-13T15:26:29.995Z,100223.81
2023-11-13T15:29:31.953Z,100221.44
2023-11-13T15:32:34.147Z,100215.69
2023-11-13T15:35:36.116Z,100206.31
2023-11-13T15:38:40.216Z,100212.25
2023-11-13T15:41:42.200Z,100207.16
2023-11-13T15:44:44.617Z,100196.47
2023-11-13T15:47:46.727Z,100199.19
2023-11-13T15:51:06.208Z,100197.59
2023-11-13T15:54:08.088Z,100211.25
2023-11-13T15:57:11.175Z,100207.50
2023-11-13T16:00:14.031Z,100212.09
2023-11-13T16:03:16.004Z,100205.56
2023-11-13T16:06:18.831Z,100196.75
2023-11-13T16:09:24.200Z,100209.56
2023-11-13T16:12:47.063Z,100209.56
2023-11-13T16:15:49.382Z,100212.78
2023-11-13T16:18:51.456Z,100207.34
2023-11-13T16:22:05.846Z,100205.12
2023-11-13T16:28:27.163Z,100205.72
2023-11-13T16:31:29.315Z,100183.13
2023-11-13T16:34:46.228Z,100178.12
2023-11-13T16:37:48.439Z,100200.22
2023-11-13T16:40:50.376Z,100188.78
2023-11-13T16:43:55.011Z,100198.59
2023-11-13T16:46:56.910Z,100192.53
2023-11-13T16:50:00.811Z,100190.41
2023-11-13T16:53:03.353Z,100179.19
2023-11-13T16:56:06.032Z,100180.72
2023-11-13T16:59:09.021Z,100177.13
2023-11-13T17:02:11.030Z,100173.00
2023-11-13T17:05:12.998Z,100176.69
2023-11-13T17:08:15.135Z,100172.06
2023-11-13T17:11:16.874Z,100176.72
2023-11-13T17:17:34.942Z,100174.84
2023-11-13T17:20:37.547Z,100175.09
2023-11-13T17:23:39.239Z,100172.44
2023-11-13T17:26:40.838Z,100174.00
2023-11-13T17:29:42.460Z,100164.38
2023-11-13T17:32:44.172Z,100156.25
2023-11-13T17:35:46.271Z,100151.19
2023-11-13T17:38:48.564Z,100149.13
2023-11-13T17:41:50.591Z,100155.28
2023-11-13T17:44:52.657Z,100161.50
2023-11-13T17:47:55.792Z,100163.63
2023-11-13T17:51:00.149Z,100163.19
2023-11-13T17:54:03.360Z,100164.78
2023-11-13T17:57:05.978Z,100170.56
2023-11-13T18:00:10.170Z,100160.94
2023-11-13T18:03:14.855Z,100160.09
2023-11-13T18:06:16.901Z,100165.19
2023-11-13T18:09:19.057Z,100160.91
2023-11-13T18:12:21.060Z,100154.75
2023-11-13T18:15:22.755Z,100165.31
2023-11-13T18:18:24.414Z,100162.72
2023-11-13T18:21:46.475Z,100156.06
2023-11-13T18:24:48.466Z,100169.06
2023-11-13T18:27:50.436Z,100160.41
2023-11-13T18:30:52.728Z,100153.06
2023-11-13T18:33:54.570Z,100150.53
2023-11-13T18:36:56.310Z,100151.28
2023-11-13T18:39:57.996Z,100150.53
2023-11-13T18:42:59.780Z,100144.94
2023-11-13T18:46:01.530Z,100151.59
2023-11-13T18:49:03.403Z,100156.97
2023-11-13T18:52:06.033Z,100147.47
2023-11-13T18:55:08.566Z,100139.56
2023-11-13T18:58:10.433Z,100137.28
2023-11-13T19:01:12.193Z,100127.00
2023-11-13T19:04:14.354Z,100128.81
2023-11-13T19:07:16.168Z,100128.47
2023-11-13T19:10:18.212Z,100129.06
2023-11-13T19:13:20.017Z,100133.00
2023-11-13T19:16:21.746Z,100132.75
2023-11-13T19:19:36.901Z,100130.22
2023-11-13T19:22:39.334Z,100130.38
2023-11-13T19:25:42.168Z,100130.06
2023-11-13T19:28:44.179Z,100139.34
2023-11-13T19:31:45.969Z,100140.88
2023-11-13T19:34:47.685Z,100144.09
2023-11-13T19:37:49.725Z,100148.41
2023-11-13T19:40:51.718Z,100141.63
2023-11-13T19:43:54.780Z,100124.87
2023-11-13T19:46:56.822Z,100128.91
2023-11-13T19:49:58.816Z,100121.41
2023-11-13T19:53:01.441Z,100121.41
2023-11-13T19:56:03.512Z,100124.63
2023-11-13T19:59:16.992Z,100118.91
2023-11-13T20:02:19.616Z,100104.56
2023-11-13T20:05:21.591Z,100091.16
2023-11-13T20:08:23.752Z,100083.50
2023-11-13T20:11:25.937Z,100090.75
2023-11-13T20:14:27.840Z,100098.34
2023-11-13T20:17:29.644Z,100104.94
2023-11-13T20:20:31.408Z,100095.28
2023-11-13T20:23:33.073Z,100102.13
2023-11-13T20:26:34.765Z,100090.84
2023-11-13T20:29:38.796Z,100091.06
2023-11-13T20:32:40.831Z,100086.22
2023-11-13T20:35:42.705Z,100090.91
2023-11-13T20:38:44.686Z,100085.72
2023-11-13T20:41:46.492Z,100091.44
2023-11-13T20:44:48.350Z,100076.09
2023-11-13T20:47:50.506Z,100057.28
2023-11-13T20:50:52.458Z,100046.16
2023-11-13T20:53:54.352Z,100041.13
2023-11-13T20:56:56.086Z,100030.47
2023-11-13T20:59:57.842Z,100016.97
2023-11-13T21:02:59.821Z,100029.72
2023-11-13T21:06:07.523Z,100026.38
2023-11-13T21:09:10.494Z,100014.66
2023-11-13T21:12:12.270Z,100014.66
2023-11-13T21:15:14.268Z,99995.03
2023-11-13T21:18:16.021Z,100010.63
2023-11-13T21:21:17.778Z,100022.19
2023-11-13T21:24:19.883Z,100022.03
2023-11-13T21:27:21.932Z,100008.59
2023-11-13T21:30:23.770Z,100027.37
2023-11-13T21:33:25.519Z,100027.91
2023-11-13T21:36:27.620Z,100016.94
2023-11-13T21:39:29.610Z,100008.34
2023-11-13T21:42:31.600Z,100000.56
2023-11-13T21:45:33.501Z,99984.25
2023-11-13T21:48:36.308Z,99977.25
2023-11-13T21:51:39.252Z,99960.09
2023-11-13T21:54:41.024Z,99951.59
2023-11-13T21:57:43.096Z,99946.44
2023-11-13T22:00:45.089Z,99944.38
2023-11-13T22:03:46.749Z,99951.97
2023-11-13T22:06:49.183Z,99966.88
2023-11-13T22:09:53.834Z,99967.12
2023-11-13T22:12:55.858Z,99959.25
2023-11-13T22:15:57.785Z,99966.47
2023-11-13T22:18:59.781Z,99968.47
2023-11-13T22:22:01.511Z,99972.84
2023-11-13T22:25:03.744Z,99993.63
2023-11-13T22:28:05.683Z,99996.13
2023-11-13T22:31:07.512Z,100000.56
2023-11-13T22:34:09.553Z,99994.34
2023-11-13T22:37:11.662Z,100001.78
2023-11-13T22:40:14.090Z,100003.63
2023-11-13T22:43:15.749Z,100009.28
2023-11-13T22:46:17.776Z,100002.25
2023-11-13T22:49:19.867Z,100000.47
2023-11-13T22:52:21.965Z,99995.03
2023-11-13T22:55:24.012Z,99991.00
2023-11-13T22:58:25.704Z,99975.25
2023-11-13T23:01:27.666Z,99960.72
2023-11-13T23:04:29.621Z,99958.88
2023-11-13T23:14:47.179Z,99935.66
2023-11-13T23:17:49.072Z,99929.53
2023-11-13T23:38:19.563Z,99898.53
2023-11-13T23:41:21.818Z,99888.47
2023-11-13T23:44:23.730Z,99900.28
2023-11-13T23:47:26.044Z,99898.97
2023-11-13T23:50:28.274Z,99902.37
2023-11-13T23:53:29.929Z,99892.88
2023-11-13T23:56:31.846Z,99875.06
2023-11-13T23:59:36.911Z,99891.34
